sensor_id;sensor_type;location;lat;lon;timestamp;temperature;humidity
35591;DHT22;30355;50.556;10.012;2024-02-04T00:03:08;10.10;78.30
35591;DHT22;30355;50.556;10.012;2024-02-04T00:13:11;10.10;78.20
35591;DHT22;30355;50.556;10.012;2024-02-04T00:23:13;10.20;78.30
35591;DHT22;30355;50.556;10.012;2024-02-04T00:33:15;10.20;78.10
35591;DHT22;30355;50.556;10.012;2024-02-04T00:43:18;10.20;78.20
35591;DHT22;30355;50.556;10.012;2024-02-04T00:53:20;10.20;78.10
35591;DHT22;30355;50.556;10.012;2024-02-04T01:03:22;10.20;78.00
35591;DHT22;30355;50.556;10.012;2024-02-04T01:13:24;10.20;78.10
35591;DHT22;30355;50.556;10.012;2024-02-04T01:23:26;10.10;78.30
35591;DHT22;30355;50.556;10.012;2024-02-04T01:33:29;10.00;78.40
35591;DHT22;30355;50.556;10.012;2024-02-04T01:43:31;10.00;78.40
35591;DHT22;30355;50.556;10.012;2024-02-04T01:53:34;10.00;78.50
35591;DHT22;30355;50.556;10.012;2024-02-04T02:03:38;10.00;78.50
35591;DHT22;30355;50.556;10.012;2024-02-04T02:13:41;10.00;78.50
35591;DHT22;30355;50.556;10.012;2024-02-04T02:24:10;10.00;78.60
35591;DHT22;30355;50.556;10.012;2024-02-04T02:34:25;10.00;79.10
35591;DHT22;30355;50.556;10.012;2024-02-04T02:44:39;10.00;78.60
35591;DHT22;30355;50.556;10.012;2024-02-04T02:54:43;10.00;78.60
35591;DHT22;30355;50.556;10.012;2024-02-04T03:04:45;10.00;78.60
35591;DHT22;30355;50.556;10.012;2024-02-04T03:14:47;10.00;78.60
35591;DHT22;30355;50.556;10.012;2024-02-04T03:24:49;10.00;78.80
35591;DHT22;30355;50.556;10.012;2024-02-04T03:34:52;9.90;78.90
35591;DHT22;30355;50.556;10.012;2024-02-04T03:44:55;9.90;79.00
35591;DHT22;30355;50.556;10.012;2024-02-04T03:54:58;9.80;79.20
35591;DHT22;30355;50.556;10.012;2024-02-04T04:05:04;9.80;79.10
35591;DHT22;30355;50.556;10.012;2024-02-04T04:15:07;9.80;79.00
35591;DHT22;30355;50.556;10.012;2024-02-04T04:25:09;9.80;78.90
35591;DHT22;30355;50.556;10.012;2024-02-04T04:35:11;9.90;78.90
35591;DHT22;30355;50.556;10.012;2024-02-04T04:45:13;9.90;79.00
35591;DHT22;30355;50.556;10.012;2024-02-04T04:55:16;9.80;79.00
35591;DHT22;30355;50.556;10.012;2024-02-04T05:05:19;9.80;79.00
35591;DHT22;30355;50.556;10.012;2024-02-04T05:15:21;9.90;79.10
35591;DHT22;30355;50.556;10.012;2024-02-04T05:25:24;9.90;79.00
35591;DHT22;30355;50.556;10.012;2024-02-04T05:35:27;9.90;79.00
35591;DHT22;30355;50.556;10.012;2024-02-04T05:45:29;9.90;79.00
35591;DHT22;30355;50.556;10.012;2024-02-04T05:55:31;10.00;79.00
35591;DHT22;30355;50.556;10.012;2024-02-04T06:05:33;9.90;79.10
35591;DHT22;30355;50.556;10.012;2024-02-04T06:15:35;9.90;79.10
35591;DHT22;30355;50.556;10.012;2024-02-04T06:25:38;9.90;79.10
35591;DHT22;30355;50.556;10.012;2024-02-04T06:35:40;9.90;79.10
35591;DHT22;30355;50.556;10.012;2024-02-04T06:45:42;10.00;79.10
35591;DHT22;30355;50.556;10.012;2024-02-04T06:55:44;10.00;79.10
35591;DHT22;30355;50.556;10.012;2024-02-04T07:05:46;10.00;79.60
35591;DHT22;30355;50.556;10.012;2024-02-04T07:15:49;9.90;79.60
35591;DHT22;30355;50.556;10.012;2024-02-04T07:25:51;9.90;79.60
35591;DHT22;30355;50.556;10.012;2024-02-04T07:35:53;10.00;79.60
35591;DHT22;30355;50.556;10.012;2024-02-04T07:45:55;10.10;79.40
35591;DHT22;30355;50.556;10.012;2024-02-04T07:56:07;10.20;79.20
35591;DHT22;30355;50.556;10.012;2024-02-04T08:06:09;10.10;79.30
35591;DHT22;30355;50.556;10.012;2024-02-04T08:16:12;10.20;79.10
35591;DHT22;30355;50.556;10.012;2024-02-04T08:26:14;10.20;78.90
35591;DHT22;30355;50.556;10.012;2024-02-04T08:36:16;10.30;78.80
35591;DHT22;30355;50.556;10.012;2024-02-04T08:46:19;10.30;78.60
35591;DHT22;30355;50.556;10.012;2024-02-04T08:56:21;10.40;78.50
35591;DHT22;30355;50.556;10.012;2024-02-04T09:06:23;10.40;78.40
35591;DHT22;30355;50.556;10.012;2024-02-04T09:16:25;10.40;78.60
35591;DHT22;30355;50.556;10.012;2024-02-04T09:26:27;10.40;78.70
35591;DHT22;30355;50.556;10.012;2024-02-04T09:36:30;10.40;78.70
35591;DHT22;30355;50.556;10.012;2024-02-04T09:46:32;10.50;78.70
35591;DHT22;30355;50.556;10.012;2024-02-04T09:56:35;10.40;78.80
35591;DHT22;30355;50.556;10.012;2024-02-04T10:06:39;10.40;79.00
35591;DHT22;30355;50.556;10.012;2024-02-04T10:16:42;10.40;79.10
35591;DHT22;30355;50.556;10.012;2024-02-04T10:26:44;10.40;79.20
35591;DHT22;30355;50.556;10.012;2024-02-04T10:36:48;10.40;79.40
35591;DHT22;30355;50.556;10.012;2024-02-04T10:46:51;10.50;79.60
35591;DHT22;30355;50.556;10.012;2024-02-04T10:57:02;10.50;80.10
35591;DHT22;30355;50.556;10.012;2024-02-04T11:07:08;10.50;79.80
35591;DHT22;30355;50.556;10.012;2024-02-04T11:28:16;10.50;79.90
35591;DHT22;30355;50.556;10.012;2024-02-04T11:38:18;10.50;79.90
35591;DHT22;30355;50.556;10.012;2024-02-04T11:48:32;10.60;79.80
35591;DHT22;30355;50.556;10.012;2024-02-04T11:58:36;10.60;80.00
35591;DHT22;30355;50.556;10.012;2024-02-04T12:08:38;10.70;79.80
35591;DHT22;30355;50.556;10.012;2024-02-04T12:18:50;10.80;79.60
35591;DHT22;30355;50.556;10.012;2024-02-04T12:28:53;10.80;79.70
35591;DHT22;30355;50.556;10.012;2024-02-04T12:39:00;10.80;79.50
35591;DHT22;30355;50.556;10.012;2024-02-04T12:49:03;10.80;79.70
35591;DHT22;30355;50.556;10.012;2024-02-04T12:59:09;11.00;79.30
35591;DHT22;30355;50.556;10.012;2024-02-04T13:09:14;11.00;79.10
35591;DHT22;30355;50.556;10.012;2024-02-04T13:19:18;11.10;79.10
35591;DHT22;30355;50.556;10.012;2024-02-04T13:29:20;11.10;79.00
35591;DHT22;30355;50.556;10.012;2024-02-04T13:39:22;11.10;78.80
35591;DHT22;30355;50.556;10.012;2024-02-04T13:49:24;11.10;78.90
35591;DHT22;30355;50.556;10.012;2024-02-04T13:59:26;11.10;78.90
35591;DHT22;30355;50.556;10.012;2024-02-04T14:09:29;11.10;78.90
35591;DHT22;30355;50.556;10.012;2024-02-04T14:19:31;11.10;78.90
35591;DHT22;30355;50.556;10.012;2024-02-04T14:29:33;11.00;79.00
35591;DHT22;30355;50.556;10.012;2024-02-04T14:39:35;11.10;79.10
35591;DHT22;30355;50.556;10.012;2024-02-04T14:49:40;11.10;79.10
35591;DHT22;30355;50.556;10.012;2024-02-04T14:59:42;11.10;79.90
35591;DHT22;30355;50.556;10.012;2024-02-04T15:09:45;11.20;79.30
35591;DHT22;30355;50.556;10.012;2024-02-04T15:19:47;11.10;79.20
35591;DHT22;30355;50.556;10.012;2024-02-04T15:29:50;11.00;79.60
35591;DHT22;30355;50.556;10.012;2024-02-04T15:39:52;11.00;79.80
35591;DHT22;30355;50.556;10.012;2024-02-04T15:49:56;10.90;80.10
35591;DHT22;30355;50.556;10.012;2024-02-04T16:00:01;10.90;80.20
35591;DHT22;30355;50.556;10.012;2024-02-04T16:10:15;10.90;80.30
35591;DHT22;30355;50.556;10.012;2024-02-04T16:20:23;10.90;80.70
35591;DHT22;30355;50.556;10.012;2024-02-04T16:30:27;10.90;80.50
35591;DHT22;30355;50.556;10.012;2024-02-04T16:40:29;11.00;80.30
35591;DHT22;30355;50.556;10.012;2024-02-04T16:50:32;11.00;80.20
35591;DHT22;30355;50.556;10.012;2024-02-04T17:00:34;11.00;80.10
35591;DHT22;30355;50.556;10.012;2024-02-04T17:10:36;11.00;79.90
35591;DHT22;30355;50.556;10.012;2024-02-04T17:20:47;11.00;80.10
35591;DHT22;30355;50.556;10.012;2024-02-04T17:30:49;11.00;80.20
35591;DHT22;30355;50.556;10.012;2024-02-04T17:40:52;11.00;80.20
35591;DHT22;30355;50.556;10.012;2024-02-04T17:50:54;11.00;80.30
35591;DHT22;30355;50.556;10.012;2024-02-04T18:01:19;10.90;80.50
35591;DHT22;30355;50.556;10.012;2024-02-04T18:11:23;10.90;80.50
35591;DHT22;30355;50.556;10.012;2024-02-04T18:21:27;10.90;80.70
35591;DHT22;30355;50.556;10.012;2024-02-04T18:31:30;10.90;80.90
35591;DHT22;30355;50.556;10.012;2024-02-04T18:41:34;10.90;80.90
35591;DHT22;30355;50.556;10.012;2024-02-04T18:51:41;10.90;80.80
35591;DHT22;30355;50.556;10.012;2024-02-04T19:01:45;11.00;81.00
35591;DHT22;30355;50.556;10.012;2024-02-04T19:11:47;10.90;81.00
35591;DHT22;30355;50.556;10.012;2024-02-04T19:21:49;10.90;81.00
35591;DHT22;30355;50.556;10.012;2024-02-04T19:31:52;10.80;81.10
35591;DHT22;30355;50.556;10.012;2024-02-04T19:41:56;10.80;81.20
35591;DHT22;30355;50.556;10.012;2024-02-04T19:52:00;10.70;81.20
35591;DHT22;30355;50.556;10.012;2024-02-04T20:02:02;10.70;81.30
35591;DHT22;30355;50.556;10.012;2024-02-04T20:12:07;10.70;81.40
35591;DHT22;30355;50.556;10.012;2024-02-04T20:22:09;10.60;81.50
35591;DHT22;30355;50.556;10.012;2024-02-04T20:32:12;10.60;81.70
35591;DHT22;30355;50.556;10.012;2024-02-04T20:42:14;10.50;82.30
35591;DHT22;30355;50.556;10.012;2024-02-04T20:52:16;10.50;81.80
35591;DHT22;30355;50.556;10.012;2024-02-04T21:02:21;10.50;81.90
35591;DHT22;30355;50.556;10.012;2024-02-04T21:12:23;10.50;81.90
35591;DHT22;30355;50.556;10.012;2024-02-04T21:22:25;10.40;81.60
35591;DHT22;30355;50.556;10.012;2024-02-04T21:32:27;10.40;81.70
35591;DHT22;30355;50.556;10.012;2024-02-04T21:42:30;10.40;81.80
35591;DHT22;30355;50.556;10.012;2024-02-04T21:52:32;10.30;81.90
35591;DHT22;30355;50.556;10.012;2024-02-04T22:02:34;10.30;81.90
35591;DHT22;30355;50.556;10.012;2024-02-04T22:12:36;10.20;81.80
35591;DHT22;30355;50.556;10.012;2024-02-04T22:22:40;10.30;82.00
35591;DHT22;30355;50.556;10.012;2024-02-04T22:32:43;10.20;81.90
35591;DHT22;30355;50.556;10.012;2024-02-04T22:42:47;10.20;81.90
35591;DHT22;30355;50.556;10.012;2024-02-04T22:52:51;10.20;82.00
35591;DHT22;30355;50.556;10.012;2024-02-04T23:03:03;10.20;82.00
35591;DHT22;30355;50.556;10.012;2024-02-04T23:13:07;10.20;82.00
35591;DHT22;30355;50.556;10.012;2024-02-04T23:23:13;10.20;81.90
35591;DHT22;30355;50.556;10.012;2024-02-04T23:33:17;10.20;82.00
35591;DHT22;30355;50.556;10.012;2024-02-04T23:43:19;10.10;82.00
35591;DHT22;30355;50.556;10.012;2024-02-04T23:53:22;10.10;81.90
